sensor_id;sensor_type;location;lat;lon;timestamp;P1;durP1;ratioP1;P2;durP2;ratioP2
30934;SDS011;51033;42.648;23.292;2023-02-15T00:01:50;44.65;;;26.95;;
30934;SDS011;51033;42.648;23.292;2023-02-15T00:04:18;47.53;;;28.73;;
30934;SDS011;51033;42.648;23.292;2023-02-15T00:06:44;49.45;;;28.73;;
30934;SDS011;51033;42.648;23.292;2023-02-15T00:09:10;50.85;;;28.65;;
30934;SDS011;51033;42.648;23.292;2023-02-15T00:11:36;42.63;;;27.05;;
30934;SDS011;51033;42.648;23.292;2023-02-15T00:16:33;48.15;;;30.10;;
30934;SDS011;51033;42.648;23.292;2023-02-15T00:18:59;42.50;;;28.42;;
30934;SDS011;51033;42.648;23.292;2023-02-15T00:21:31;46.65;;;28.48;;
30934;SDS011;51033;42.648;23.292;2023-02-15T00:23:58;47.00;;;29.70;;
30934;SDS011;51033;42.648;23.292;2023-02-15T00:26:25;45.10;;;27.15;;
30934;SDS011;51033;42.648;23.292;2023-02-15T00:28:51;47.25;;;26.77;;
30934;SDS011;51033;42.648;23.292;2023-02-15T00:31:17;46.38;;;28.45;;
30934;SDS011;51033;42.648;23.292;2023-02-15T00:33:42;46.53;;;30.13;;
30934;SDS011;51033;42.648;23.292;2023-02-15T00:36:09;44.75;;;29.33;;
30934;SDS011;51033;42.648;23.292;2023-02-15T00:38:35;43.45;;;27.75;;
30934;SDS011;51033;42.648;23.292;2023-02-15T00:41:02;47.28;;;29.95;;
30934;SDS011;51033;42.648;23.292;2023-02-15T00:43:29;47.70;;;30.58;;
30934;SDS011;51033;42.648;23.292;2023-02-15T00:45:55;45.80;;;30.63;;
30934;SDS011;51033;42.648;23.292;2023-02-15T00:48:21;60.25;;;34.08;;
30934;SDS011;51033;42.648;23.292;2023-02-15T00:50:51;51.05;;;28.67;;
30934;SDS011;51033;42.648;23.292;2023-02-15T00:53:18;45.60;;;28.52;;
30934;SDS011;51033;42.648;23.292;2023-02-15T00:55:44;48.03;;;29.88;;
30934;SDS011;51033;42.648;23.292;2023-02-15T00:58:09;47.83;;;29.23;;
30934;SDS011;51033;42.648;23.292;2023-02-15T01:00:36;54.10;;;34.20;;
30934;SDS011;51033;42.648;23.292;2023-02-15T01:03:02;50.75;;;32.80;;
30934;SDS011;51033;42.648;23.292;2023-02-15T01:05:28;49.60;;;31.20;;
30934;SDS011;51033;42.648;23.292;2023-02-15T01:07:54;44.13;;;27.10;;
30934;SDS011;51033;42.648;23.292;2023-02-15T01:10:20;58.47;;;34.47;;
30934;SDS011;51033;42.648;23.292;2023-02-15T01:12:46;58.53;;;35.13;;
30934;SDS011;51033;42.648;23.292;2023-02-15T01:15:11;60.65;;;34.40;;
30934;SDS011;51033;42.648;23.292;2023-02-15T01:17:37;52.83;;;31.55;;
30934;SDS011;51033;42.648;23.292;2023-02-15T01:20:02;42.83;;;26.92;;
30934;SDS011;51033;42.648;23.292;2023-02-15T01:22:28;60.97;;;34.97;;
30934;SDS011;51033;42.648;23.292;2023-02-15T01:24:53;70.07;;;39.03;;
30934;SDS011;51033;42.648;23.292;2023-02-15T01:27:18;59.22;;;34.42;;
30934;SDS011;51033;42.648;23.292;2023-02-15T01:29:44;101.90;;;53.75;;
30934;SDS011;51033;42.648;23.292;2023-02-15T01:32:09;54.45;;;32.28;;
30934;SDS011;51033;42.648;23.292;2023-02-15T01:34:35;59.80;;;32.50;;
30934;SDS011;51033;42.648;23.292;2023-02-15T01:37:00;63.97;;;37.58;;
30934;SDS011;51033;42.648;23.292;2023-02-15T01:39:26;50.08;;;29.90;;
30934;SDS011;51033;42.648;23.292;2023-02-15T01:41:51;50.28;;;29.45;;
30934;SDS011;51033;42.648;23.292;2023-02-15T01:47:10;46.22;;;29.35;;
30934;SDS011;51033;42.648;23.292;2023-02-15T01:49:41;45.20;;;27.73;;
30934;SDS011;51033;42.648;23.292;2023-02-15T01:52:10;45.35;;;28.05;;
30934;SDS011;51033;42.648;23.292;2023-02-15T01:54:39;46.35;;;27.55;;
30934;SDS011;51033;42.648;23.292;2023-02-15T01:57:14;51.25;;;30.70;;
30934;SDS011;51033;42.648;23.292;2023-02-15T01:59:43;42.90;;;27.05;;
30934;SDS011;51033;42.648;23.292;2023-02-15T02:02:13;48.60;;;28.13;;
30934;SDS011;51033;42.648;23.292;2023-02-15T02:04:43;45.67;;;27.13;;
30934;SDS011;51033;42.648;23.292;2023-02-15T02:07:13;42.13;;;27.13;;
30934;SDS011;51033;42.648;23.292;2023-02-15T02:09:42;47.83;;;29.08;;
30934;SDS011;51033;42.648;23.292;2023-02-15T02:12:08;51.65;;;27.13;;
30934;SDS011;51033;42.648;23.292;2023-02-15T02:14:34;38.95;;;24.42;;
30934;SDS011;51033;42.648;23.292;2023-02-15T02:22:02;43.92;;;25.35;;
30934;SDS011;51033;42.648;23.292;2023-02-15T02:25:03;43.88;;;25.75;;
30934;SDS011;51033;42.648;23.292;2023-02-15T02:27:45;40.35;;;25.77;;
30934;SDS011;51033;42.648;23.292;2023-02-15T02:30:38;41.22;;;24.77;;
30934;SDS011;51033;42.648;23.292;2023-02-15T02:43:32;40.30;;;25.63;;
30934;SDS011;51033;42.648;23.292;2023-02-15T02:46:06;39.78;;;25.23;;
30934;SDS011;51033;42.648;23.292;2023-02-15T02:48:34;42.88;;;27.50;;
30934;SDS011;51033;42.648;23.292;2023-02-15T02:50:59;40.70;;;25.20;;
30934;SDS011;51033;42.648;23.292;2023-02-15T02:53:25;36.50;;;24.33;;
30934;SDS011;51033;42.648;23.292;2023-02-15T02:55:58;37.67;;;22.52;;
30934;SDS011;51033;42.648;23.292;2023-02-15T03:01:47;33.75;;;21.38;;
30934;SDS011;51033;42.648;23.292;2023-02-15T03:04:17;40.72;;;24.45;;
30934;SDS011;51033;42.648;23.292;2023-02-15T03:06:57;36.28;;;23.48;;
30934;SDS011;51033;42.648;23.292;2023-02-15T03:09:29;41.50;;;24.52;;
30934;SDS011;51033;42.648;23.292;2023-02-15T03:12:09;37.88;;;22.58;;
30934;SDS011;51033;42.648;23.292;2023-02-15T03:14:38;37.50;;;23.17;;
30934;SDS011;51033;42.648;23.292;2023-02-15T03:17:05;37.28;;;24.27;;
30934;SDS011;51033;42.648;23.292;2023-02-15T03:19:33;39.08;;;24.27;;
30934;SDS011;51033;42.648;23.292;2023-02-15T03:22:10;36.75;;;23.80;;
30934;SDS011;51033;42.648;23.292;2023-02-15T03:24:47;33.58;;;21.77;;
30934;SDS011;51033;42.648;23.292;2023-02-15T03:27:25;34.88;;;22.27;;
30934;SDS011;51033;42.648;23.292;2023-02-15T03:29:56;38.08;;;24.25;;
30934;SDS011;51033;42.648;23.292;2023-02-15T03:32:25;35.72;;;23.13;;
30934;SDS011;51033;42.648;23.292;2023-02-15T03:34:53;35.20;;;22.10;;
30934;SDS011;51033;42.648;23.292;2023-02-15T03:40:14;33.15;;;22.58;;
30934;SDS011;51033;42.648;23.292;2023-02-15T03:43:30;33.92;;;21.50;;
30934;SDS011;51033;42.648;23.292;2023-02-15T03:45:53;33.67;;;22.27;;
30934;SDS011;51033;42.648;23.292;2023-02-15T03:48:31;37.70;;;22.65;;
30934;SDS011;51033;42.648;23.292;2023-02-15T03:51:03;34.13;;;21.73;;
30934;SDS011;51033;42.648;23.292;2023-02-15T03:53:51;33.33;;;21.70;;
30934;SDS011;51033;42.648;23.292;2023-02-15T03:56:19;38.88;;;23.52;;
30934;SDS011;51033;42.648;23.292;2023-02-15T03:58:44;36.58;;;22.98;;
30934;SDS011;51033;42.648;23.292;2023-02-15T04:01:36;37.30;;;24.00;;
30934;SDS011;51033;42.648;23.292;2023-02-15T04:04:36;35.75;;;22.08;;
30934;SDS011;51033;42.648;23.292;2023-02-15T04:07:05;34.15;;;21.52;;
30934;SDS011;51033;42.648;23.292;2023-02-15T04:09:32;36.08;;;23.23;;
30934;SDS011;51033;42.648;23.292;2023-02-15T04:12:16;34.13;;;23.48;;
30934;SDS011;51033;42.648;23.292;2023-02-15T04:14:42;37.22;;;22.70;;
30934;SDS011;51033;42.648;23.292;2023-02-15T04:17:25;38.60;;;24.60;;
30934;SDS011;51033;42.648;23.292;2023-02-15T04:19:51;43.03;;;25.17;;
30934;SDS011;51033;42.648;23.292;2023-02-15T04:22:35;37.85;;;23.65;;
30934;SDS011;51033;42.648;23.292;2023-02-15T04:25:19;35.78;;;24.10;;
30934;SDS011;51033;42.648;23.292;2023-02-15T04:27:46;37.38;;;23.25;;
30934;SDS011;51033;42.648;23.292;2023-02-15T04:30:15;39.40;;;24.13;;
30934;SDS011;51033;42.648;23.292;2023-02-15T04:32:43;43.10;;;26.17;;
30934;SDS011;51033;42.648;23.292;2023-02-15T04:35:09;37.70;;;25.30;;
30934;SDS011;51033;42.648;23.292;2023-02-15T04:37:34;37.03;;;23.65;;
30934;SDS011;51033;42.648;23.292;2023-02-15T04:40:00;40.05;;;24.17;;
30934;SDS011;51033;42.648;23.292;2023-02-15T04:42:26;39.60;;;24.23;;
30934;SDS011;51033;42.648;23.292;2023-02-15T04:44:52;37.88;;;23.35;;
30934;SDS011;51033;42.648;23.292;2023-02-15T04:47:19;36.88;;;24.23;;
30934;SDS011;51033;42.648;23.292;2023-02-15T04:49:44;40.85;;;25.45;;
30934;SDS011;51033;42.648;23.292;2023-02-15T04:52:10;40.38;;;25.33;;
30934;SDS011;51033;42.648;23.292;2023-02-15T04:54:35;39.38;;;23.55;;
30934;SDS011;51033;42.648;23.292;2023-02-15T04:57:01;36.50;;;24.05;;
30934;SDS011;51033;42.648;23.292;2023-02-15T04:59:26;36.88;;;24.05;;
30934;SDS011;51033;42.648;23.292;2023-02-15T05:01:52;36.72;;;23.80;;
30934;SDS011;51033;42.648;23.292;2023-02-15T05:04:17;38.55;;;24.40;;
30934;SDS011;51033;42.648;23.292;2023-02-15T05:06:43;39.05;;;24.25;;
30934;SDS011;51033;42.648;23.292;2023-02-15T05:09:08;42.83;;;25.13;;
30934;SDS011;51033;42.648;23.292;2023-02-15T05:11:34;40.63;;;23.02;;
30934;SDS011;51033;42.648;23.292;2023-02-15T05:13:59;40.03;;;24.13;;
30934;SDS011;51033;42.648;23.292;2023-02-15T05:16:24;39.15;;;23.63;;
30934;SDS011;51033;42.648;23.292;2023-02-15T05:18:52;38.97;;;23.00;;
30934;SDS011;51033;42.648;23.292;2023-02-15T05:21:17;37.13;;;23.13;;
30934;SDS011;51033;42.648;23.292;2023-02-15T05:23:43;41.20;;;24.25;;
30934;SDS011;51033;42.648;23.292;2023-02-15T05:26:10;36.35;;;24.02;;
30934;SDS011;51033;42.648;23.292;2023-02-15T05:28:55;39.75;;;23.98;;
30934;SDS011;51033;42.648;23.292;2023-02-15T05:31:20;39.03;;;23.75;;
30934;SDS011;51033;42.648;23.292;2023-02-15T05:33:46;40.50;;;24.48;;
30934;SDS011;51033;42.648;23.292;2023-02-15T05:36:12;36.63;;;22.67;;
30934;SDS011;51033;42.648;23.292;2023-02-15T05:38:38;35.60;;;22.25;;
30934;SDS011;51033;42.648;23.292;2023-02-15T05:41:04;38.42;;;23.65;;
30934;SDS011;51033;42.648;23.292;2023-02-15T05:43:33;44.95;;;26.52;;
30934;SDS011;51033;42.648;23.292;2023-02-15T05:45:59;49.88;;;28.77;;
30934;SDS011;51033;42.648;23.292;2023-02-15T05:48:26;38.17;;;25.42;;
30934;SDS011;51033;42.648;23.292;2023-02-15T05:50:58;39.95;;;22.08;;
30934;SDS011;51033;42.648;23.292;2023-02-15T05:53:26;41.22;;;23.38;;
30934;SDS011;51033;42.648;23.292;2023-02-15T05:55:52;35.67;;;22.92;;
30934;SDS011;51033;42.648;23.292;2023-02-15T05:58:19;41.17;;;25.20;;
30934;SDS011;51033;42.648;23.292;2023-02-15T06:00:45;37.65;;;23.52;;
30934;SDS011;51033;42.648;23.292;2023-02-15T06:03:10;35.85;;;22.17;;
30934;SDS011;51033;42.648;23.292;2023-02-15T06:05:36;39.47;;;24.58;;
30934;SDS011;51033;42.648;23.292;2023-02-15T06:08:01;35.45;;;21.88;;
30934;SDS011;51033;42.648;23.292;2023-02-15T06:10:27;33.55;;;21.15;;
30934;SDS011;51033;42.648;23.292;2023-02-15T06:12:52;37.05;;;21.75;;
30934;SDS011;51033;42.648;23.292;2023-02-15T06:15:17;39.97;;;24.77;;
30934;SDS011;51033;42.648;23.292;2023-02-15T06:17:43;34.55;;;21.23;;
30934;SDS011;51033;42.648;23.292;2023-02-15T06:20:08;39.53;;;22.92;;
30934;SDS011;51033;42.648;23.292;2023-02-15T06:22:34;34.28;;;22.08;;
30934;SDS011;51033;42.648;23.292;2023-02-15T06:25:00;40.63;;;24.08;;
30934;SDS011;51033;42.648;23.292;2023-02-15T06:27:25;35.03;;;22.00;;
30934;SDS011;51033;42.648;23.292;2023-02-15T06:29:51;32.25;;;21.55;;
30934;SDS011;51033;42.648;23.292;2023-02-15T06:32:16;37.55;;;22.58;;
30934;SDS011;51033;42.648;23.292;2023-02-15T06:34:41;33.75;;;22.10;;
30934;SDS011;51033;42.648;23.292;2023-02-15T06:37:07;36.10;;;21.42;;
30934;SDS011;51033;42.648;23.292;2023-02-15T06:39:33;35.28;;;22.23;;
30934;SDS011;51033;42.648;23.292;2023-02-15T06:41:59;30.35;;;19.70;;
30934;SDS011;51033;42.648;23.292;2023-02-15T06:44:25;32.22;;;19.70;;
30934;SDS011;51033;42.648;23.292;2023-02-15T06:46:50;32.15;;;19.85;;
30934;SDS011;51033;42.648;23.292;2023-02-15T06:49:15;33.80;;;19.95;;
30934;SDS011;51033;42.648;23.292;2023-02-15T06:51:41;34.28;;;21.00;;
30934;SDS011;51033;42.648;23.292;2023-02-15T06:54:06;32.08;;;19.90;;
30934;SDS011;51033;42.648;23.292;2023-02-15T06:56:32;29.10;;;18.08;;
30934;SDS011;51033;42.648;23.292;2023-02-15T06:58:57;34.90;;;20.95;;
30934;SDS011;51033;42.648;23.292;2023-02-15T07:01:22;31.30;;;19.05;;
30934;SDS011;51033;42.648;23.292;2023-02-15T07:03:48;31.85;;;19.48;;
30934;SDS011;51033;42.648;23.292;2023-02-15T07:06:14;28.80;;;18.40;;
30934;SDS011;51033;42.648;23.292;2023-02-15T07:08:39;30.42;;;20.13;;
30934;SDS011;51033;42.648;23.292;2023-02-15T07:11:05;27.30;;;17.98;;
30934;SDS011;51033;42.648;23.292;2023-02-15T07:13:50;26.98;;;17.25;;
30934;SDS011;51033;42.648;23.292;2023-02-15T07:16:17;27.40;;;18.27;;
30934;SDS011;51033;42.648;23.292;2023-02-15T07:18:43;27.58;;;18.30;;
30934;SDS011;51033;42.648;23.292;2023-02-15T07:21:08;28.15;;;16.92;;
30934;SDS011;51033;42.648;23.292;2023-02-15T07:23:37;28.67;;;19.25;;
30934;SDS011;51033;42.648;23.292;2023-02-15T07:26:03;32.90;;;18.08;;
30934;SDS011;51033;42.648;23.292;2023-02-15T07:28:29;27.63;;;17.65;;
30934;SDS011;51033;42.648;23.292;2023-02-15T07:30:55;28.23;;;17.67;;
30934;SDS011;51033;42.648;23.292;2023-02-15T07:33:22;26.88;;;17.10;;
30934;SDS011;51033;42.648;23.292;2023-02-15T07:36:01;25.73;;;17.50;;
30934;SDS011;51033;42.648;23.292;2023-02-15T07:38:32;25.42;;;17.13;;
30934;SDS011;51033;42.648;23.292;2023-02-15T07:40:59;26.80;;;16.10;;
30934;SDS011;51033;42.648;23.292;2023-02-15T07:43:26;26.23;;;16.50;;
30934;SDS011;51033;42.648;23.292;2023-02-15T07:45:52;25.80;;;16.75;;
30934;SDS011;51033;42.648;23.292;2023-02-15T07:48:28;25.08;;;16.13;;
30934;SDS011;51033;42.648;23.292;2023-02-15T07:50:53;24.88;;;17.33;;
30934;SDS011;51033;42.648;23.292;2023-02-15T07:53:19;26.35;;;16.83;;
30934;SDS011;51033;42.648;23.292;2023-02-15T07:55:44;27.10;;;15.90;;
30934;SDS011;51033;42.648;23.292;2023-02-15T07:58:09;26.10;;;16.48;;
30934;SDS011;51033;42.648;23.292;2023-02-15T08:00:35;31.25;;;19.38;;
30934;SDS011;51033;42.648;23.292;2023-02-15T08:03:22;26.33;;;17.45;;
30934;SDS011;51033;42.648;23.292;2023-02-15T08:05:58;25.83;;;17.77;;
30934;SDS011;51033;42.648;23.292;2023-02-15T08:08:24;27.75;;;17.08;;
30934;SDS011;51033;42.648;23.292;2023-02-15T08:10:57;30.23;;;17.80;;
30934;SDS011;51033;42.648;23.292;2023-02-15T08:19:19;30.85;;;18.58;;
30934;SDS011;51033;42.648;23.292;2023-02-15T08:21:48;29.02;;;18.83;;
30934;SDS011;51033;42.648;23.292;2023-02-15T08:24:16;26.45;;;17.80;;
30934;SDS011;51033;42.648;23.292;2023-02-15T08:26:44;29.63;;;18.83;;
30934;SDS011;51033;42.648;23.292;2023-02-15T08:29:12;26.95;;;17.70;;
30934;SDS011;51033;42.648;23.292;2023-02-15T08:31:39;24.33;;;15.80;;
30934;SDS011;51033;42.648;23.292;2023-02-15T08:34:06;27.50;;;17.48;;
30934;SDS011;51033;42.648;23.292;2023-02-15T08:36:33;28.65;;;17.95;;
30934;SDS011;51033;42.648;23.292;2023-02-15T08:38:59;25.35;;;16.15;;
30934;SDS011;51033;42.648;23.292;2023-02-15T08:41:27;23.08;;;15.73;;
30934;SDS011;51033;42.648;23.292;2023-02-15T08:43:55;28.70;;;18.23;;
30934;SDS011;51033;42.648;23.292;2023-02-15T08:46:22;25.90;;;16.23;;
30934;SDS011;51033;42.648;23.292;2023-02-15T08:48:50;28.33;;;18.33;;
30934;SDS011;51033;42.648;23.292;2023-02-15T08:51:20;28.95;;;18.52;;
30934;SDS011;51033;42.648;23.292;2023-02-15T08:53:48;27.67;;;17.00;;
30934;SDS011;51033;42.648;23.292;2023-02-15T08:56:19;27.50;;;17.38;;
30934;SDS011;51033;42.648;23.292;2023-02-15T08:58:47;26.38;;;16.90;;
30934;SDS011;51033;42.648;23.292;2023-02-15T09:01:14;23.20;;;16.48;;
30934;SDS011;51033;42.648;23.292;2023-02-15T09:03:43;26.20;;;16.45;;
30934;SDS011;51033;42.648;23.292;2023-02-15T09:06:10;26.40;;;16.45;;
30934;SDS011;51033;42.648;23.292;2023-02-15T09:08:36;26.70;;;17.13;;
30934;SDS011;51033;42.648;23.292;2023-02-15T09:11:18;22.05;;;15.88;;
30934;SDS011;51033;42.648;23.292;2023-02-15T09:13:52;30.83;;;18.38;;
30934;SDS011;51033;42.648;23.292;2023-02-15T09:16:23;34.58;;;20.77;;
30934;SDS011;51033;42.648;23.292;2023-02-15T09:18:51;48.90;;;21.55;;
30934;SDS011;51033;42.648;23.292;2023-02-15T09:21:18;44.50;;;20.85;;
30934;SDS011;51033;42.648;23.292;2023-02-15T09:23:46;32.47;;;20.65;;
30934;SDS011;51033;42.648;23.292;2023-02-15T09:26:13;30.60;;;19.02;;
30934;SDS011;51033;42.648;23.292;2023-02-15T09:28:44;31.17;;;19.48;;
30934;SDS011;51033;42.648;23.292;2023-02-15T09:31:11;35.60;;;21.98;;
30934;SDS011;51033;42.648;23.292;2023-02-15T09:33:39;34.13;;;21.92;;
30934;SDS011;51033;42.648;23.292;2023-02-15T09:36:12;33.75;;;21.55;;
30934;SDS011;51033;42.648;23.292;2023-02-15T09:38:40;34.55;;;20.10;;
30934;SDS011;51033;42.648;23.292;2023-02-15T09:41:15;30.15;;;18.38;;
30934;SDS011;51033;42.648;23.292;2023-02-15T09:49:23;26.60;;;18.60;;
30934;SDS011;51033;42.648;23.292;2023-02-15T10:04:16;30.13;;;19.05;;
30934;SDS011;51033;42.648;23.292;2023-02-15T10:09:58;30.73;;;18.52;;
30934;SDS011;51033;42.648;23.292;2023-02-15T10:15:40;27.42;;;16.92;;
30934;SDS011;51033;42.648;23.292;2023-02-15T10:26:48;25.58;;;17.08;;
30934;SDS011;51033;42.648;23.292;2023-02-15T10:51:53;33.33;;;21.02;;
30934;SDS011;51033;42.648;23.292;2023-02-15T10:57:21;36.47;;;21.77;;
30934;SDS011;51033;42.648;23.292;2023-02-15T11:00:02;32.33;;;21.55;;
30934;SDS011;51033;42.648;23.292;2023-02-15T11:07:41;33.60;;;21.97;;
30934;SDS011;51033;42.648;23.292;2023-02-15T11:12:55;32.38;;;20.73;;
30934;SDS011;51033;42.648;23.292;2023-02-15T11:15:28;32.25;;;21.27;;
30934;SDS011;51033;42.648;23.292;2023-02-15T11:21:01;31.27;;;20.63;;
30934;SDS011;51033;42.648;23.292;2023-02-15T11:23:43;34.95;;;22.65;;
30934;SDS011;51033;42.648;23.292;2023-02-15T11:26:18;38.47;;;22.10;;
30934;SDS011;51033;42.648;23.292;2023-02-15T11:28:49;38.70;;;23.92;;
30934;SDS011;51033;42.648;23.292;2023-02-15T11:31:21;37.00;;;23.45;;
30934;SDS011;51033;42.648;23.292;2023-02-15T11:34:01;35.55;;;23.17;;
30934;SDS011;51033;42.648;23.292;2023-02-15T11:36:38;35.03;;;22.33;;
30934;SDS011;51033;42.648;23.292;2023-02-15T11:39:13;35.03;;;21.50;;
30934;SDS011;51033;42.648;23.292;2023-02-15T11:41:41;33.72;;;22.30;;
30934;SDS011;51033;42.648;23.292;2023-02-15T11:46:40;34.58;;;22.30;;
30934;SDS011;51033;42.648;23.292;2023-02-15T11:51:48;34.25;;;21.27;;
30934;SDS011;51033;42.648;23.292;2023-02-15T11:54:17;34.92;;;23.83;;
30934;SDS011;51033;42.648;23.292;2023-02-15T11:56:44;37.95;;;24.17;;
30934;SDS011;51033;42.648;23.292;2023-02-15T11:59:11;33.08;;;21.83;;
30934;SDS011;51033;42.648;23.292;2023-02-15T12:01:44;36.47;;;23.42;;
30934;SDS011;51033;42.648;23.292;2023-02-15T12:04:16;44.00;;;23.65;;
30934;SDS011;51033;42.648;23.292;2023-02-15T12:06:53;36.55;;;22.17;;
30934;SDS011;51033;42.648;23.292;2023-02-15T12:09:40;31.35;;;21.02;;
30934;SDS011;51033;42.648;23.292;2023-02-15T12:14:49;39.00;;;21.80;;
30934;SDS011;51033;42.648;23.292;2023-02-15T12:17:16;35.30;;;22.58;;
30934;SDS011;51033;42.648;23.292;2023-02-15T12:19:42;37.75;;;23.00;;
30934;SDS011;51033;42.648;23.292;2023-02-15T12:22:17;32.33;;;20.83;;
30934;SDS011;51033;42.648;23.292;2023-02-15T12:24:55;39.30;;;23.50;;
30934;SDS011;51033;42.648;23.292;2023-02-15T12:27:27;34.15;;;23.05;;
30934;SDS011;51033;42.648;23.292;2023-02-15T12:30:15;40.28;;;24.23;;
30934;SDS011;51033;42.648;23.292;2023-02-15T12:40:56;36.35;;;22.83;;
30934;SDS011;51033;42.648;23.292;2023-02-15T12:43:27;35.08;;;22.95;;
30934;SDS011;51033;42.648;23.292;2023-02-15T12:49:05;35.38;;;23.02;;
30934;SDS011;51033;42.648;23.292;2023-02-15T12:51:31;34.92;;;22.85;;
30934;SDS011;51033;42.648;23.292;2023-02-15T12:57:12;38.00;;;22.30;;
30934;SDS011;51033;42.648;23.292;2023-02-15T13:00:04;40.47;;;24.88;;
30934;SDS011;51033;42.648;23.292;2023-02-15T13:02:52;37.20;;;23.55;;
30934;SDS011;51033;42.648;23.292;2023-02-15T13:08:13;36.03;;;22.98;;
30934;SDS011;51033;42.648;23.292;2023-02-15T13:13:24;36.00;;;23.00;;
30934;SDS011;51033;42.648;23.292;2023-02-15T13:15:52;33.25;;;21.83;;
30934;SDS011;51033;42.648;23.292;2023-02-15T13:18:28;33.85;;;22.90;;
30934;SDS011;51033;42.648;23.292;2023-02-15T13:20:54;35.70;;;23.70;;
30934;SDS011;51033;42.648;23.292;2023-02-15T13:23:29;39.08;;;25.30;;
30934;SDS011;51033;42.648;23.292;2023-02-15T13:25:57;37.70;;;23.13;;
30934;SDS011;51033;42.648;23.292;2023-02-15T13:28:26;34.75;;;22.90;;
30934;SDS011;51033;42.648;23.292;2023-02-15T13:31:02;37.83;;;24.77;;
30934;SDS011;51033;42.648;23.292;2023-02-15T13:33:30;38.70;;;26.05;;
30934;SDS011;51033;42.648;23.292;2023-02-15T13:50:27;35.47;;;22.63;;
30934;SDS011;51033;42.648;23.292;2023-02-15T13:52:58;52.67;;;36.65;;
30934;SDS011;51033;42.648;23.292;2023-02-15T13:56:10;41.13;;;25.27;;
30934;SDS011;51033;42.648;23.292;2023-02-15T13:58:26;38.00;;;25.10;;
30934;SDS011;51033;42.648;23.292;2023-02-15T14:01:19;33.92;;;22.52;;
30934;SDS011;51033;42.648;23.292;2023-02-15T14:04:07;36.17;;;22.52;;
30934;SDS011;51033;42.648;23.292;2023-02-15T14:21:12;47.45;;;31.92;;
30934;SDS011;51033;42.648;23.292;2023-02-15T14:31:46;42.85;;;25.35;;
30934;SDS011;51033;42.648;23.292;2023-02-15T14:34:21;44.03;;;26.13;;
30934;SDS011;51033;42.648;23.292;2023-02-15T14:36:50;38.72;;;25.75;;
30934;SDS011;51033;42.648;23.292;2023-02-15T14:39:29;40.88;;;26.80;;
30934;SDS011;51033;42.648;23.292;2023-02-15T14:45:25;40.17;;;25.48;;
30934;SDS011;51033;42.648;23.292;2023-02-15T15:01:29;41.78;;;26.05;;
30934;SDS011;51033;42.648;23.292;2023-02-15T15:04:00;45.83;;;28.92;;
30934;SDS011;51033;42.648;23.292;2023-02-15T15:11:51;45.50;;;27.50;;
30934;SDS011;51033;42.648;23.292;2023-02-15T15:14:36;40.70;;;26.65;;
30934;SDS011;51033;42.648;23.292;2023-02-15T15:17:03;41.55;;;26.40;;
30934;SDS011;51033;42.648;23.292;2023-02-15T15:22:20;51.17;;;31.50;;
30934;SDS011;51033;42.648;23.292;2023-02-15T15:25:09;49.00;;;30.52;;
30934;SDS011;51033;42.648;23.292;2023-02-15T15:35:33;50.90;;;32.30;;
30934;SDS011;51033;42.648;23.292;2023-02-15T15:40:51;44.38;;;27.42;;
30934;SDS011;51033;42.648;23.292;2023-02-15T15:48:37;44.50;;;29.50;;
30934;SDS011;51033;42.648;23.292;2023-02-15T15:54:01;59.10;;;37.80;;
30934;SDS011;51033;42.648;23.292;2023-02-15T15:56:28;82.03;;;47.72;;
30934;SDS011;51033;42.648;23.292;2023-02-15T15:59:17;52.30;;;34.97;;
30934;SDS011;51033;42.648;23.292;2023-02-15T16:01:47;49.42;;;35.80;;
30934;SDS011;51033;42.648;23.292;2023-02-15T16:04:14;57.35;;;38.03;;
30934;SDS011;51033;42.648;23.292;2023-02-15T16:06:50;47.42;;;31.75;;
30934;SDS011;51033;42.648;23.292;2023-02-15T16:09:20;47.13;;;31.83;;
30934;SDS011;51033;42.648;23.292;2023-02-15T16:11:49;60.35;;;38.10;;
30934;SDS011;51033;42.648;23.292;2023-02-15T16:14:24;62.90;;;38.47;;
30934;SDS011;51033;42.648;23.292;2023-02-15T16:16:57;57.13;;;35.33;;
30934;SDS011;51033;42.648;23.292;2023-02-15T16:19:30;59.72;;;40.17;;
30934;SDS011;51033;42.648;23.292;2023-02-15T16:21:59;58.38;;;35.28;;
30934;SDS011;51033;42.648;23.292;2023-02-15T16:29:49;62.30;;;43.67;;
30934;SDS011;51033;42.648;23.292;2023-02-15T16:32:16;51.17;;;34.40;;
30934;SDS011;51033;42.648;23.292;2023-02-15T16:34:51;54.72;;;36.08;;
30934;SDS011;51033;42.648;23.292;2023-02-15T16:37:18;54.45;;;35.90;;
30934;SDS011;51033;42.648;23.292;2023-02-15T16:39:52;67.37;;;44.87;;
30934;SDS011;51033;42.648;23.292;2023-02-15T16:42:19;58.38;;;39.88;;
30934;SDS011;51033;42.648;23.292;2023-02-15T16:44:45;67.95;;;44.85;;
30934;SDS011;51033;42.648;23.292;2023-02-15T16:47:19;61.95;;;40.40;;
30934;SDS011;51033;42.648;23.292;2023-02-15T16:49:53;50.47;;;34.92;;
30934;SDS011;51033;42.648;23.292;2023-02-15T16:52:22;57.03;;;38.83;;
30934;SDS011;51033;42.648;23.292;2023-02-15T16:54:54;58.90;;;41.13;;
30934;SDS011;51033;42.648;23.292;2023-02-15T16:57:25;65.78;;;43.28;;
30934;SDS011;51033;42.648;23.292;2023-02-15T16:59:57;50.90;;;36.38;;
30934;SDS011;51033;42.648;23.292;2023-02-15T17:02:53;42.80;;;30.83;;
30934;SDS011;51033;42.648;23.292;2023-02-15T17:10:41;44.63;;;27.77;;
30934;SDS011;51033;42.648;23.292;2023-02-15T17:13:27;41.13;;;26.98;;
30934;SDS011;51033;42.648;23.292;2023-02-15T17:18:32;40.90;;;26.02;;
30934;SDS011;51033;42.648;23.292;2023-02-15T17:21:10;35.13;;;24.73;;
30934;SDS011;51033;42.648;23.292;2023-02-15T17:23:41;36.08;;;24.38;;
30934;SDS011;51033;42.648;23.292;2023-02-15T17:26:24;37.60;;;25.25;;
30934;SDS011;51033;42.648;23.292;2023-02-15T17:28:54;40.10;;;25.88;;
30934;SDS011;51033;42.648;23.292;2023-02-15T17:31:23;33.17;;;23.50;;
30934;SDS011;51033;42.648;23.292;2023-02-15T17:33:53;39.00;;;24.90;;
30934;SDS011;51033;42.648;23.292;2023-02-15T17:36:21;42.28;;;27.35;;
30934;SDS011;51033;42.648;23.292;2023-02-15T17:41:26;38.03;;;25.70;;
30934;SDS011;51033;42.648;23.292;2023-02-15T17:43:53;37.60;;;26.63;;
30934;SDS011;51033;42.648;23.292;2023-02-15T17:46:19;44.53;;;28.45;;
30934;SDS011;51033;42.648;23.292;2023-02-15T17:48:48;43.08;;;27.63;;
30934;SDS011;51033;42.648;23.292;2023-02-15T17:51:16;39.85;;;26.75;;
30934;SDS011;51033;42.648;23.292;2023-02-15T17:53:44;42.50;;;27.08;;
30934;SDS011;51033;42.648;23.292;2023-02-15T17:56:29;46.78;;;29.40;;
30934;SDS011;51033;42.648;23.292;2023-02-15T17:58:55;41.70;;;27.90;;
30934;SDS011;51033;42.648;23.292;2023-02-15T18:01:21;49.00;;;30.63;;
30934;SDS011;51033;42.648;23.292;2023-02-15T18:04:07;48.50;;;31.17;;
30934;SDS011;51033;42.648;23.292;2023-02-15T18:06:55;53.33;;;34.58;;
30934;SDS011;51033;42.648;23.292;2023-02-15T18:09:39;55.28;;;34.28;;
30934;SDS011;51033;42.648;23.292;2023-02-15T18:14:54;55.58;;;35.22;;
30934;SDS011;51033;42.648;23.292;2023-02-15T18:17:42;54.50;;;34.35;;